Time;durP1;ratioP1;P1;durP2;ratioP2;P2;SDS_P1;SDS_P2;PMS_P1;PMS_P2;Temp;Humidity;BMP_temperature;BMP_pressure;BME280_temperature;BME280_humidity;BME280_pressure;Samples;Min_cycle;Max_cycle;Signal;HPM_P1;HPM_P2
2023/04/27 00:00:58;;;;;;;;;;;;;;;20.71;46.73;101343.38;5003624;28;4001;-68
2023/04/27 00:03:24;;;;;;;;;;;;;;;20.73;46.77;101343.47;5009638;28;4153;-67
2023/04/27 00:05:51;;;;;;;;;;;;;;;20.71;46.45;101341.22;5007880;28;4548;-67
2023/04/27 00:08:18;;;;;;;;;;;;;;;20.71;46.39;101344.09;5011380;28;4063;-68
2023/04/27 00:10:45;;;;;;;;;;;;;;;20.70;46.46;101344.75;5006094;28;3910;-69
2023/04/27 00:13:11;;;;;;;;;;;;;;;20.71;46.45;101337.59;5003881;28;4674;-68
2023/04/27 00:15:38;;;;;;;;;;;;;;;20.70;46.45;101338.97;5003948;28;4130;-68
2023/04/27 00:18:04;;;;;;;;;;;;;;;20.70;46.64;101338.97;5010375;28;4069;-68
2023/04/27 00:20:30;;;;;;;;;;;;;;;20.69;46.66;101334.63;4990076;28;3902;-68
2023/04/27 00:22:57;;;;;;;;;;;;;;;20.69;46.63;101337.50;5006953;28;4150;-68
2023/04/27 00:25:23;;;;;;;;;;;;;;;20.68;46.45;101330.22;5003289;28;4123;-67
2023/04/27 00:27:50;;;;;;;;;;;;;;;20.67;46.52;101340.25;5006922;28;4045;-68
2023/04/27 00:30:16;;;;;;;;;;;;;;;20.68;46.45;101341.75;5003733;28;4082;-68
2023/04/27 00:32:42;;;;;;;;;;;;;;;20.67;46.54;101337.38;5008242;28;4341;-68
2023/04/27 00:35:09;;;;;;;;;;;;;;;20.67;46.70;101335.25;5014056;28;3930;-68
2023/04/27 00:37:35;;;;;;;;;;;;;;;20.66;46.67;101333.00;5006985;28;3910;-68
2023/04/27 00:40:03;;;;;;;;;;;;;;;20.66;46.46;101345.28;5005089;28;4231;-68
2023/04/27 00:42:29;;;;;;;;;;;;;;;20.65;46.41;101343.03;5022639;28;4462;-68
2023/04/27 00:44:58;;;;;;;;;;;;;;;20.65;46.53;101343.03;5014976;28;4186;-68
2023/04/27 00:47:25;;;;;;;;;;;;;;;20.65;46.66;101348.78;5015026;28;4303;-68
2023/04/27 00:49:51;;;;;;;;;;;;;;;20.64;46.44;101347.31;5008397;28;3955;-68
2023/04/27 00:52:17;;;;;;;;;;;;;;;20.63;46.69;101345.81;4990617;28;4345;-68
2023/04/27 00:54:44;;;;;;;;;;;;;;;20.63;46.54;101351.56;5007138;28;4184;-68
2023/04/27 00:57:10;;;;;;;;;;;;;;;20.62;46.52;101345.06;5015677;28;4092;-68
2023/04/27 00:59:36;;;;;;;;;;;;;;;20.62;46.49;101353.69;5013960;28;4149;-67
2023/04/27 01:02:03;;;;;;;;;;;;;;;20.62;46.33;101355.84;5013758;28;4132;-67
2023/04/27 01:04:30;;;;;;;;;;;;;;;20.62;46.62;101355.84;5016709;28;4048;-67
2023/04/27 01:06:57;;;;;;;;;;;;;;;20.62;46.43;101352.97;5002236;28;4100;-67
2023/04/27 01:09:24;;;;;;;;;;;;;;;20.61;46.42;101354.31;5024092;28;4054;-67
2023/04/27 01:11:50;;;;;;;;;;;;;;;20.57;46.61;101360.63;5009773;28;4016;-67
2023/04/27 01:14:17;;;;;;;;;;;;;;;20.58;46.52;101356.34;5010092;28;4334;-67
2023/04/27 01:16:45;;;;;;;;;;;;;;;20.59;46.59;101362.84;5006850;28;4635;-68
2023/04/27 01:19:11;;;;;;;;;;;;;;;20.57;46.53;101360.63;5010637;28;4317;-67
2023/04/27 01:21:38;;;;;;;;;;;;;;;20.58;46.68;101355.59;5018294;28;4110;-67
2023/04/27 01:24:05;;;;;;;;;;;;;;;20.58;46.52;101361.38;5016413;28;4250;-67
2023/04/27 01:26:31;;;;;;;;;;;;;;;20.57;46.47;101365.59;5011811;28;5337;-67
2023/04/27 01:28:58;;;;;;;;;;;;;;;20.57;46.65;101371.38;5020236;28;4042;-66
2023/04/27 01:31:25;;;;;;;;;;;;;;;20.56;46.42;101369.84;5004344;28;4161;-67
2023/04/27 01:33:52;;;;;;;;;;;;;;;20.56;46.79;101372.72;5011816;28;3997;-67
2023/04/27 01:36:18;;;;;;;;;;;;;;;20.56;46.48;101366.97;5008620;28;4064;-67
2023/04/27 01:38:45;;;;;;;;;;;;;;;20.56;46.48;101375.59;5008861;28;4073;-67
2023/04/27 01:41:11;;;;;;;;;;;;;;;20.55;46.75;101369.13;5009827;28;4053;-67
2023/04/27 01:43:42;;;;;;;;;;;;;;;20.56;46.63;101381.38;5009868;28;4119;-67
2023/04/27 01:46:09;;;;;;;;;;;;;;;20.54;46.66;101372.63;5017974;28;4173;-67
2023/04/27 01:48:35;;;;;;;;;;;;;;;20.54;46.74;101375.50;5007777;28;4102;-67
2023/04/27 01:51:02;;;;;;;;;;;;;;;20.53;46.47;101379.78;4999044;28;4242;-67
2023/04/27 01:53:29;;;;;;;;;;;;;;;20.52;46.51;101379.00;5007465;28;4266;-66
2023/04/27 01:55:56;;;;;;;;;;;;;;;20.51;46.54;101384.03;5009663;28;3960;-67
2023/04/27 01:58:23;;;;;;;;;;;;;;;20.51;46.56;101386.91;5014779;28;4334;-68
2023/04/27 02:00:49;;;;;;;;;;;;;;;20.50;46.46;101391.16;5028908;28;4226;-67
2023/04/27 02:03:15;;;;;;;;;;;;;;;20.51;46.63;101380.41;5010803;28;4042;-67
2023/04/27 02:05:42;;;;;;;;;;;;;;;20.51;46.73;101397.66;5008000;28;4137;-67
2023/04/27 02:08:08;;;;;;;;;;;;;;;20.51;46.58;101397.66;5012644;28;4977;-67
2023/04/27 02:10:35;;;;;;;;;;;;;;;20.49;46.51;101389.66;5017537;28;4077;-67
2023/04/27 02:13:01;;;;;;;;;;;;;;;20.49;46.73;101395.41;5007630;28;4159;-67
2023/04/27 02:15:27;;;;;;;;;;;;;;;20.48;46.42;101398.94;4992895;28;4209;-67
2023/04/27 02:17:54;;;;;;;;;;;;;;;20.48;46.62;101399.69;5008155;28;4213;-67
2023/04/27 02:20:20;;;;;;;;;;;;;;;20.48;46.57;101396.81;5008995;28;4558;-67
2023/04/27 02:22:47;;;;;;;;;;;;;;;20.48;46.59;101402.56;5025429;28;3962;-67
2023/04/27 02:25:14;;;;;;;;;;;;;;;20.48;46.73;101401.81;5007415;28;4464;-66
2023/04/27 02:27:41;;;;;;;;;;;;;;;20.46;46.61;101402.44;5012309;28;4123;-68
2023/04/27 02:30:08;;;;;;;;;;;;;;;20.47;46.54;101398.19;5025235;28;4169;-67
2023/04/27 02:32:35;;;;;;;;;;;;;;;20.47;46.65;101403.19;5027862;28;4194;-68
2023/04/27 02:35:03;;;;;;;;;;;;;;;20.45;46.65;101400.94;5008787;28;4070;-67
2023/04/27 02:37:29;;;;;;;;;;;;;;;20.46;46.65;101407.47;5007845;28;5112;-68
2023/04/27 02:39:56;;;;;;;;;;;;;;;20.46;46.62;101401.72;5015616;28;4159;-67
2023/04/27 02:42:22;;;;;;;;;;;;;;;20.46;46.48;101407.47;5017289;28;4465;-67
2023/04/27 02:44:48;;;;;;;;;;;;;;;20.47;46.67;101409.69;5010235;28;4112;-67
2023/04/27 02:47:15;;;;;;;;;;;;;;;20.49;46.33;101406.91;5020758;28;4156;-67
2023/04/27 02:49:41;;;;;;;;;;;;;;;20.53;46.39;101405.66;5023022;28;3974;-67
2023/04/27 02:52:08;;;;;;;;;;;;;;;20.55;46.55;101414.38;5005805;28;4011;-67
2023/04/27 02:54:34;;;;;;;;;;;;;;;20.57;46.98;101414.53;5007638;28;4182;-67
2023/04/27 02:57:01;;;;;;;;;;;;;;;20.58;47.03;101416.78;5020584;28;4034;-67
2023/04/27 02:59:27;;;;;;;;;;;;;;;20.58;47.19;101416.78;5010854;28;4055;-67
2023/04/27 03:01:53;;;;;;;;;;;;;;;20.58;47.06;101425.41;5004886;28;4101;-67
2023/04/27 03:04:20;;;;;;;;;;;;;;;20.59;47.07;101414.63;5004948;28;3979;-67
2023/04/27 03:06:47;;;;;;;;;;;;;;;20.59;47.12;101411.75;5009419;28;4017;-67
2023/04/27 03:09:13;;;;;;;;;;;;;;;20.59;47.27;101426.16;4991344;28;4202;-67
2023/04/27 03:11:40;;;;;;;;;;;;;;;20.60;47.48;101413.28;5008320;28;4129;-67
2023/04/27 03:14:07;;;;;;;;;;;;;;;20.59;47.32;101424.03;5006499;28;4349;-67
2023/04/27 03:16:33;;;;;;;;;;;;;;;20.61;47.45;101429.13;5008217;28;4079;-67
2023/04/27 03:19:00;;;;;;;;;;;;;;;20.61;47.39;101429.13;5004948;28;4197;-67
2023/04/27 03:21:29;;;;;;;;;;;;;;;20.62;47.56;101424.91;5013886;28;3957;-67
2023/04/27 03:23:55;;;;;;;;;;;;;;;20.63;47.54;101432.88;5005652;28;3975;-66
2023/04/27 03:26:21;;;;;;;;;;;;;;;20.64;47.32;101433.63;5007788;28;4409;-67
2023/04/27 03:28:48;;;;;;;;;;;;;;;20.63;47.42;101432.13;5006580;28;4090;-67
2023/04/27 03:31:14;;;;;;;;;;;;;;;20.64;47.48;101428.63;5006738;28;4068;-68
2023/04/27 03:33:41;;;;;;;;;;;;;;;20.65;47.49;101429.38;5009589;28;3955;-63
2023/04/27 03:36:07;;;;;;;;;;;;;;;20.64;47.52;101434.38;5007331;28;4192;-65
2023/04/27 03:38:34;;;;;;;;;;;;;;;20.64;47.56;101434.38;5012373;28;4215;-65
2023/04/27 03:41:00;;;;;;;;;;;;;;;20.64;47.59;101445.16;5008886;28;3970;-65
2023/04/27 03:43:27;;;;;;;;;;;;;;;20.65;47.25;101441.63;5007832;28;4564;-65
2023/04/27 03:45:53;;;;;;;;;;;;;;;20.65;47.25;101441.63;5007389;28;4071;-65
2023/04/27 03:48:19;;;;;;;;;;;;;;;20.68;47.46;101445.34;5008826;28;4145;-65
2023/04/27 03:50:46;;;;;;;;;;;;;;;20.68;47.32;101442.47;5002913;28;4066;-64
2023/04/27 03:53:13;;;;;;;;;;;;;;;20.70;47.36;101448.34;5007427;28;4164;-65
2023/04/27 03:55:41;;;;;;;;;;;;;;;20.70;47.38;101451.22;5005305;28;4143;-65
2023/04/27 03:58:09;;;;;;;;;;;;;;;20.70;47.46;101451.97;5023270;28;4172;-64
2023/04/27 04:00:37;;;;;;;;;;;;;;;20.69;47.65;101446.84;5015877;28;4127;-65
2023/04/27 04:03:03;;;;;;;;;;;;;;;20.70;47.54;101459.84;5003943;28;4287;-65
2023/04/27 04:05:31;;;;;;;;;;;;;;;20.70;47.53;101454.84;5015210;28;5584;-65
2023/04/27 04:07:57;;;;;;;;;;;;;;;20.69;47.61;101464.88;5008778;28;4009;-65
2023/04/27 04:10:25;;;;;;;;;;;;;;;20.70;47.66;101465.59;5006787;28;4214;-65
2023/04/27 04:12:52;;;;;;;;;;;;;;;20.68;47.36;101462.63;5014765;28;4273;-65
2023/04/27 04:15:19;;;;;;;;;;;;;;;20.68;47.63;101462.63;5006029;28;4213;-65
2023/04/27 04:17:48;;;;;;;;;;;;;;;20.68;47.40;101465.50;5016219;28;4018;-65
2023/04/27 04:20:14;;;;;;;;;;;;;;;20.71;47.59;101458.47;5006561;28;4333;-65
2023/04/27 04:22:42;;;;;;;;;;;;;;;20.71;47.61;101470.00;5007749;28;4098;-66
2023/04/27 04:25:08;;;;;;;;;;;;;;;20.71;47.75;101467.84;5004688;28;4222;-65
2023/04/27 04:27:36;;;;;;;;;;;;;;;20.71;47.60;101467.13;5006798;28;4116;-65
2023/04/27 04:30:05;;;;;;;;;;;;;;;20.74;47.46;101479.47;5014800;28;4359;-65
2023/04/27 04:32:32;;;;;;;;;;;;;;;20.72;47.63;101471.47;5019639;28;4024;-65
2023/04/27 04:35:00;;;;;;;;;;;;;;;20.73;47.35;101473.00;5009744;28;4048;-66
2023/04/27 04:37:27;;;;;;;;;;;;;;;20.72;47.66;101471.47;5017361;28;4160;-65
2023/04/27 04:39:55;;;;;;;;;;;;;;;20.73;47.58;101480.84;5017852;28;4524;-66
2023/04/27 04:42:23;;;;;;;;;;;;;;;20.73;47.66;101483.72;5018901;28;4253;-65
2023/04/27 04:44:50;;;;;;;;;;;;;;;20.72;47.35;101485.88;5010114;28;4081;-65
2023/04/27 04:47:16;;;;;;;;;;;;;;;20.73;47.66;101484.50;5008767;28;4291;-65
2023/04/27 04:49:44;;;;;;;;;;;;;;;20.74;47.59;101483.09;5018607;28;4311;-65
2023/04/27 04:52:10;;;;;;;;;;;;;;;20.74;47.74;101483.09;5018185;28;4432;-65
2023/04/27 04:54:37;;;;;;;;;;;;;;;20.75;47.49;101483.84;5014491;28;4048;-65
2023/04/27 04:57:04;;;;;;;;;;;;;;;20.77;47.57;101493.34;5008005;28;4516;-66
2023/04/27 04:59:34;;;;;;;;;;;;;;;20.76;47.53;101497.59;5008146;28;5136;-65
2023/04/27 05:02:00;;;;;;;;;;;;;;;20.76;47.67;101491.84;5008675;28;4050;-65
2023/04/27 05:04:27;;;;;;;;;;;;;;;20.75;47.49;101493.22;5008532;28;4357;-66
2023/04/27 05:06:54;;;;;;;;;;;;;;;20.76;47.50;101491.09;5008234;28;4042;-65
2023/04/27 05:09:20;;;;;;;;;;;;;;;20.76;47.54;101494.72;5009869;28;3979;-65
2023/04/27 05:11:46;;;;;;;;;;;;;;;20.75;47.70;101490.34;5010666;28;4573;-65
2023/04/27 05:14:13;;;;;;;;;;;;;;;20.75;47.80;101498.97;5011016;28;6060;-65
2023/04/27 05:16:39;;;;;;;;;;;;;;;20.74;47.81;101500.38;5008288;28;4556;-65
2023/04/27 05:19:07;;;;;;;;;;;;;;;20.75;47.64;101496.09;5010293;28;4492;-68
2023/04/27 05:21:33;;;;;;;;;;;;;;;20.75;47.46;101504.72;5012237;28;4077;-66
2023/04/27 05:24:00;;;;;;;;;;;;;;;20.77;47.64;101504.09;5016518;28;3985;-64
2023/04/27 05:26:26;;;;;;;;;;;;;;;20.75;47.63;101507.59;5008898;28;4385;-65
2023/04/27 05:28:52;;;;;;;;;;;;;;;20.70;47.52;101505.91;5009550;28;3962;-67
2023/04/27 05:31:19;;;;;;;;;;;;;;;20.73;47.29;101495.25;5008414;28;4117;-65
2023/04/27 05:33:45;;;;;;;;;;;;;;;20.76;47.41;101505.50;5014197;28;4129;-65
2023/04/27 05:36:12;;;;;;;;;;;;;;;20.77;47.23;101510.59;5011880;28;3994;-65
2023/04/27 05:38:39;;;;;;;;;;;;;;;20.79;47.52;101507.09;5010556;28;4320;-65
2023/04/27 05:41:06;;;;;;;;;;;;;;;20.77;47.39;101510.59;5009790;28;4133;-64
2023/04/27 05:43:33;;;;;;;;;;;;;;;20.77;47.68;101516.34;5008937;28;4029;-65
2023/04/27 05:46:00;;;;;;;;;;;;;;;20.78;47.39;101511.38;5010181;28;4068;-65
2023/04/27 05:48:26;;;;;;;;;;;;;;;20.77;47.50;101516.34;5013406;28;4168;-66
2023/04/27 05:51:00;;;;;;;;;;;;;;;20.78;47.39;101511.38;5008091;28;4065;-66
2023/04/27 05:53:26;;;;;;;;;;;;;;;20.79;47.42;101512.84;5006646;28;4028;-66
2023/04/27 05:55:52;;;;;;;;;;;;;;;20.79;47.28;101513.59;5007489;28;4416;-66
2023/04/27 05:58:19;;;;;;;;;;;;;;;20.80;47.54;101523.75;5007673;28;4151;-66
2023/04/27 06:00:45;;;;;;;;;;;;;;;20.81;47.32;101527.38;5005593;28;4119;-66
2023/04/27 06:03:12;;;;;;;;;;;;;;;20.81;47.37;101528.09;5008477;28;3931;-65
2023/04/27 06:05:39;;;;;;;;;;;;;;;20.81;47.43;101524.47;5008822;28;4034;-66
2023/04/27 06:08:05;;;;;;;;;;;;;;;20.81;47.45;101521.59;5004172;28;4185;-66
2023/04/27 06:10:31;;;;;;;;;;;;;;;20.81;47.44;101536.75;5012253;28;5205;-66
2023/04/27 06:12:58;;;;;;;;;;;;;;;20.81;47.68;101528.09;5005655;28;4096;-66
2023/04/27 06:15:24;;;;;;;;;;;;;;;20.81;47.41;101536.75;5008701;28;4156;-65
2023/04/27 06:17:51;;;;;;;;;;;;;;;20.81;47.40;101530.97;5008101;28;4292;-66
2023/04/27 06:20:17;;;;;;;;;;;;;;;20.81;47.66;101536.75;5006766;28;4157;-66
2023/04/27 06:22:45;;;;;;;;;;;;;;;20.80;47.63;101535.25;5011022;28;4445;-66
2023/04/27 06:25:11;;;;;;;;;;;;;;;20.80;47.61;101543.88;5006040;28;4164;-66
2023/04/27 06:27:38;;;;;;;;;;;;;;;20.79;47.75;101542.38;5009542;28;4129;-66
2023/04/27 06:30:05;;;;;;;;;;;;;;;20.78;47.49;101543.78;5010266;28;4291;-66
2023/04/27 06:32:31;;;;;;;;;;;;;;;20.79;47.60;101548.13;5007764;28;4200;-66
2023/04/27 06:34:57;;;;;;;;;;;;;;;20.79;47.63;101536.63;5008261;28;4178;-66
2023/04/27 06:37:24;;;;;;;;;;;;;;;20.80;47.46;101546.78;5007106;28;4307;-66
2023/04/27 06:39:51;;;;;;;;;;;;;;;20.81;47.42;101545.38;5010458;28;4204;-66
2023/04/27 06:42:17;;;;;;;;;;;;;;;20.81;47.41;101539.63;5004724;28;4177;-66
2023/04/27 06:44:44;;;;;;;;;;;;;;;20.82;47.71;101543.22;5004795;28;4244;-66
2023/04/27 06:47:10;;;;;;;;;;;;;;;20.82;47.59;101541.13;5008104;28;4122;-65
2023/04/27 06:49:36;;;;;;;;;;;;;;;20.83;47.55;101547.63;5005878;28;4014;-66
2023/04/27 06:52:03;;;;;;;;;;;;;;;20.82;47.43;101540.34;5009064;28;4227;-66
2023/04/27 06:54:29;;;;;;;;;;;;;;;20.83;47.67;101536.84;5004324;28;4126;-67
2023/04/27 06:56:56;;;;;;;;;;;;;;;20.82;47.31;101546.88;5004541;28;4021;-66
2023/04/27 06:59:22;;;;;;;;;;;;;;;20.82;47.57;101546.13;5011521;28;4158;-66
2023/04/27 07:01:48;;;;;;;;;;;;;;;20.82;47.61;101549.75;5011743;28;4138;-66
2023/04/27 07:04:15;;;;;;;;;;;;;;;20.82;47.44;101546.13;5006780;28;4284;-66
2023/04/27 07:06:41;;;;;;;;;;;;;;;20.81;47.58;101550.38;5006990;28;4209;-66
2023/04/27 07:09:08;;;;;;;;;;;;;;;20.82;47.59;101558.41;5007137;28;4316;-65
2023/04/27 07:11:51;;;;;;;;;;;;;;;20.81;47.78;101554.00;5005717;28;4177;-66
2023/04/27 07:14:17;;;;;;;;;;;;;;;20.81;47.68;101551.13;5003986;28;4159;-66
2023/04/27 07:16:44;;;;;;;;;;;;;;;20.82;47.45;101555.53;5006322;28;4261;-66
2023/04/27 07:19:10;;;;;;;;;;;;;;;20.83;48.12;101557.00;5005673;28;4146;-66
2023/04/27 07:21:37;;;;;;;;;;;;;;;20.83;47.82;101554.13;5011289;28;4439;-66
2023/04/27 07:24:04;;;;;;;;;;;;;;;20.85;48.03;101557.13;5012469;28;4500;-66
2023/04/27 07:26:31;;;;;;;;;;;;;;;20.85;48.18;101551.38;5010610;28;3987;-66
2023/04/27 07:28:58;;;;;;;;;;;;;;;20.86;48.06;101549.97;5008260;28;4428;-66
2023/04/27 07:31:24;;;;;;;;;;;;;;;20.87;48.24;101557.22;5006664;28;4630;-66
2023/04/27 07:33:52;;;;;;;;;;;;;;;20.88;48.46;101561.59;5009129;28;4082;-66
2023/04/27 07:36:18;;;;;;;;;;;;;;;20.87;48.40;101560.13;5003188;28;4108;-66
2023/04/27 07:38:45;;;;;;;;;;;;;;;20.84;48.47;101560.63;5008550;28;4018;-66
2023/04/27 07:41:13;;;;;;;;;;;;;;;19.65;41.02;101560.25;5004713;28;4153;-68
2023/04/27 07:43:41;;;;;;;;;;;;;;;18.61;36.85;101550.88;5005039;28;4081;-68
2023/04/27 07:46:07;;;;;;;;;;;;;;;18.11;35.96;101558.41;5010369;28;3998;-65
2023/04/27 07:48:33;;;;;;;;;;;;;;;18.30;35.71;101551.00;5007700;28;4171;-66
2023/04/27 07:51:00;;;;;;;;;;;;;;;19.15;36.39;101560.75;5005518;28;4148;-66
2023/04/27 07:53:26;;;;;;;;;;;;;;;19.67;36.27;101559.63;5007534;28;5003;-66
2023/04/27 07:55:53;;;;;;;;;;;;;;;19.98;37.31;101567.22;5007193;28;4064;-66
2023/04/27 07:58:19;;;;;;;;;;;;;;;20.15;38.08;101561.03;5010207;28;4165;-66
2023/04/27 08:00:45;;;;;;;;;;;;;;;20.27;38.45;101569.63;5011334;28;3927;-66
2023/04/27 08:03:12;;;;;;;;;;;;;;;20.34;39.67;101562.09;5010487;28;4333;-66
2023/04/27 08:05:39;;;;;;;;;;;;;;;20.42;39.75;101565.44;5010405;28;4146;-65
2023/04/27 08:08:06;;;;;;;;;;;;;;;20.45;39.83;101562.03;5011703;28;4105;-67
2023/04/27 08:10:32;;;;;;;;;;;;;;;20.49;40.15;101567.28;5014215;28;4961;-66
2023/04/27 08:12:59;;;;;;;;;;;;;;;20.45;40.89;101567.78;5014335;28;4014;-65
2023/04/27 08:15:25;;;;;;;;;;;;;;;20.52;40.86;101571.78;5011040;28;3984;-66
2023/04/27 08:17:51;;;;;;;;;;;;;;;20.52;41.29;101577.53;5013083;28;3961;-66
2023/04/27 08:20:18;;;;;;;;;;;;;;;20.50;41.58;101581.06;5013172;28;4369;-66
2023/04/27 08:22:44;;;;;;;;;;;;;;;20.56;41.47;101577.03;5012901;28;3954;-65
2023/04/27 08:25:10;;;;;;;;;;;;;;;20.54;41.62;101576.91;5012812;28;4043;-65
2023/04/27 08:27:37;;;;;;;;;;;;;;;20.56;41.74;101582.78;5017343;28;4267;-66
2023/04/27 08:30:04;;;;;;;;;;;;;;;20.56;41.88;101571.25;5013125;28;4166;-66
2023/04/27 08:32:30;;;;;;;;;;;;;;;20.55;41.99;101581.25;5009343;28;4066;-65
2023/04/27 08:34:57;;;;;;;;;;;;;;;20.55;42.29;101579.16;5012771;28;4170;-66
2023/04/27 08:37:23;;;;;;;;;;;;;;;20.56;42.55;101579.91;5010681;28;4222;-66
2023/04/27 08:39:49;;;;;;;;;;;;;;;20.58;42.27;101580.03;5018654;28;4168;-66
2023/04/27 08:42:16;;;;;;;;;;;;;;;20.58;42.46;101582.91;5012352;28;4209;-65
2023/04/27 08:44:42;;;;;;;;;;;;;;;20.58;42.47;101577.16;5015702;28;4027;-66
2023/04/27 08:47:09;;;;;;;;;;;;;;;20.58;42.65;101574.28;5008947;28;3957;-66
2023/04/27 08:49:37;;;;;;;;;;;;;;;20.59;42.86;101579.44;5010613;28;4244;-65
2023/04/27 08:52:04;;;;;;;;;;;;;;;20.32;43.27;101571.38;5008173;28;4152;-66
2023/04/27 08:54:30;;;;;;;;;;;;;;;20.40;43.36;101566.06;5009667;28;4104;-66
2023/04/27 08:56:57;;;;;;;;;;;;;;;20.49;43.15;101575.91;5012677;28;4630;-66
2023/04/27 08:59:23;;;;;;;;;;;;;;;20.32;42.74;101573.47;5015423;28;4282;-66
2023/04/27 09:01:49;;;;;;;;;;;;;;;20.33;43.79;101572.84;5012383;28;4021;-65
2023/04/27 09:04:17;;;;;;;;;;;;;;;20.45;43.20;101569.94;5008262;28;4861;-65
2023/04/27 09:06:44;;;;;;;;;;;;;;;20.51;43.28;101576.78;5010951;28;4276;-63
2023/04/27 09:09:19;;;;;;;;;;;;;;;20.54;43.16;101574.78;5008989;28;4127;-63
2023/04/27 09:11:46;;;;;;;;;;;;;;;20.58;42.90;101574.28;5011995;28;4206;-63
2023/04/27 09:14:15;;;;;;;;;;;;;;;20.58;43.06;101580.03;5011717;28;4175;-63
2023/04/27 09:16:41;;;;;;;;;;;;;;;20.63;43.03;101571.00;5015126;28;4575;-63
2023/04/27 09:19:08;;;;;;;;;;;;;;;20.66;43.40;101580.50;5011039;28;4596;-62
2023/04/27 09:21:34;;;;;;;;;;;;;;;20.93;43.48;101580.59;5009245;28;4126;-62
2023/04/27 09:24:11;;;;;;;;;;;;;;;21.05;43.45;101579.75;5014001;28;4018;-64
2023/04/27 09:26:38;;;;;;;;;;;;;;;21.08;43.69;101578.50;5011296;28;4013;-63
2023/04/27 09:29:04;;;;;;;;;;;;;;;21.12;43.60;101572.97;5009046;28;4547;-62
2023/04/27 09:31:31;;;;;;;;;;;;;;;21.10;43.76;101575.75;5015892;28;4441;-63
2023/04/27 09:33:58;;;;;;;;;;;;;;;21.11;43.93;101577.22;5011211;28;4125;-63
2023/04/27 09:36:24;;;;;;;;;;;;;;;21.10;44.10;101575.75;5011192;28;4135;-62
2023/04/27 09:38:50;;;;;;;;;;;;;;;21.12;44.17;101572.97;5013810;28;4175;-61
2023/04/27 09:41:17;;;;;;;;;;;;;;;21.00;44.35;101566.53;5012734;28;4009;-67
2023/04/27 09:43:46;;;;;;;;;;;;;;;20.91;44.10;101566.09;5011503;28;4228;-68
2023/04/27 09:46:12;;;;;;;;;;;;;;;20.88;44.24;101561.59;5013104;28;4555;-68
2023/04/27 09:48:39;;;;;;;;;;;;;;;20.89;44.30;101551.59;5008929;28;4161;-67
2023/04/27 09:51:06;;;;;;;;;;;;;;;20.88;44.40;101547.19;5011591;28;4029;-67
2023/04/27 09:53:58;;;;;;;;;;;;;;;20.90;44.40;101541.56;5010948;28;4176;-68
2023/04/27 09:56:28;;;;;;;;;;;;;;;20.90;44.86;101540.81;4998799;28;4098;-68
2023/04/27 09:58:54;;;;;;;;;;;;;;;20.89;44.67;101540.06;5010502;28;4078;-67
2023/04/27 10:01:38;;;;;;;;;;;;;;;20.89;45.07;101540.06;5012151;28;4080;-68
2023/04/27 10:04:10;;;;;;;;;;;;;;;20.80;45.54;101537.38;5012936;28;4923;-68
2023/04/27 10:06:56;;;;;;;;;;;;;;;20.85;45.70;101536.97;5013184;28;4211;-67
2023/04/27 10:09:23;;;;;;;;;;;;;;;20.87;45.67;101525.56;5011059;28;4186;-67
2023/04/27 10:11:50;;;;;;;;;;;;;;;20.88;45.75;101532.81;5000908;28;4024;-66
2023/04/27 10:14:17;;;;;;;;;;;;;;;20.89;45.91;101536.44;5013362;28;4155;-67
2023/04/27 10:16:45;;;;;;;;;;;;;;;20.86;46.23;101532.69;5009217;28;4197;-66
2023/04/27 10:19:11;;;;;;;;;;;;;;;20.87;46.16;101537.09;5009389;28;4229;-66
2023/04/27 10:21:55;;;;;;;;;;;;;;;20.87;46.19;101537.09;5016687;28;5228;-67
2023/04/27 10:24:38;;;;;;;;;;;;;;;20.84;46.53;101541.22;5009450;28;4488;-68
2023/04/27 10:27:05;;;;;;;;;;;;;;;20.83;46.55;101536.84;5009558;28;4321;-67
2023/04/27 10:29:35;;;;;;;;;;;;;;;20.85;46.68;101536.97;5001711;28;4251;-67
2023/04/27 10:32:04;;;;;;;;;;;;;;;20.87;46.67;101531.31;5017105;28;4052;-66
2023/04/27 10:34:32;;;;;;;;;;;;;;;20.89;46.50;101534.31;5015149;28;4224;-66
2023/04/27 10:37:06;;;;;;;;;;;;;;;20.87;46.86;101542.09;5007656;28;4620;-66
2023/04/27 10:39:39;;;;;;;;;;;;;;;20.86;46.88;101538.44;5007956;28;4092;-66
2023/04/27 10:42:14;;;;;;;;;;;;;;;20.85;46.70;101539.84;5015303;28;4211;-66
2023/04/27 10:44:40;;;;;;;;;;;;;;;20.87;46.73;101542.84;5008101;28;4187;-67
2023/04/27 10:47:13;;;;;;;;;;;;;;;20.86;46.85;101547.09;5011345;28;4338;-68
2023/04/27 10:49:39;;;;;;;;;;;;;;;20.86;46.92;101541.31;5012003;28;4076;-67
2023/04/27 10:52:06;;;;;;;;;;;;;;;20.87;46.85;101537.09;5006002;28;4126;-67
2023/04/27 10:54:33;;;;;;;;;;;;;;;20.86;46.96;101529.81;5008841;28;4256;-67
2023/04/27 10:57:07;;;;;;;;;;;;;;;20.86;46.99;101529.81;5008707;28;4160;-66
2023/04/27 10:59:33;;;;;;;;;;;;;;;20.84;46.94;101532.56;5011126;28;4256;-67
2023/04/27 11:02:00;;;;;;;;;;;;;;;20.87;46.91;101531.31;5010525;28;4229;-67
2023/04/27 11:04:37;;;;;;;;;;;;;;;20.85;47.00;101527.59;5011495;28;4006;-67
2023/04/27 11:07:03;;;;;;;;;;;;;;;20.84;46.65;101528.97;5011135;28;4592;-66
2023/04/27 11:09:30;;;;;;;;;;;;;;;20.87;46.55;101530.59;5011673;28;4297;-68
2023/04/27 11:11:56;;;;;;;;;;;;;;;20.87;46.71;101542.84;5011811;28;4156;-68
2023/04/27 11:14:23;;;;;;;;;;;;;;;20.87;46.38;101534.19;5008706;28;4026;-67
2023/04/27 11:16:49;;;;;;;;;;;;;;;20.88;46.60;101538.56;5010641;28;4081;-66
2023/04/27 11:19:15;;;;;;;;;;;;;;;20.86;46.37;101535.56;5011850;28;4023;-66
2023/04/27 11:21:42;;;;;;;;;;;;;;;20.89;46.27;101539.31;5006914;28;4413;-67
2023/04/27 11:24:11;;;;;;;;;;;;;;;20.89;46.39;101527.78;5010847;28;4107;-66
2023/04/27 11:26:40;;;;;;;;;;;;;;;20.85;46.54;101528.34;5008882;28;5336;-67
2023/04/27 11:29:09;;;;;;;;;;;;;;;20.87;46.48;101542.84;5009142;28;4215;-67
2023/04/27 11:31:39;;;;;;;;;;;;;;;20.85;46.61;101545.59;5009654;28;4223;-68
2023/04/27 11:34:06;;;;;;;;;;;;;;;20.86;46.63;101547.09;5007532;28;4117;-67
2023/04/27 11:36:33;;;;;;;;;;;;;;;20.86;46.49;101552.84;5006796;28;5143;-67
2023/04/27 11:38:59;;;;;;;;;;;;;;;20.85;46.43;101551.38;5003936;28;4052;-71
2023/04/27 11:41:35;;;;;;;;;;;;;;;20.11;41.13;101554.31;5005256;28;4130;-67
2023/04/27 11:44:06;;;;;;;;;;;;;;;20.36;40.24;101547.84;5007488;28;4366;-67
2023/04/27 11:46:35;;;;;;;;;;;;;;;20.51;44.83;101558.78;4999142;28;4000;-67
2023/04/27 11:49:03;;;;;;;;;;;;;;;20.68;44.97;101560.47;5011823;28;4190;-67
2023/04/27 11:51:32;;;;;;;;;;;;;;;20.76;44.62;101566.69;5005181;28;4221;-66
2023/04/27 11:54:02;;;;;;;;;;;;;;;20.75;44.59;101559.41;5009524;28;3984;-66
2023/04/27 11:56:38;;;;;;;;;;;;;;;20.74;44.44;101571.59;5008208;28;3977;-66
2023/04/27 11:59:05;;;;;;;;;;;;;;;20.78;44.30;101563.19;5007476;28;4047;-67
2023/04/27 12:01:32;;;;;;;;;;;;;;;20.78;44.53;101563.94;4998577;28;4132;-66
2023/04/27 12:04:03;;;;;;;;;;;;;;;20.80;44.57;101561.16;5005241;28;4104;-67
2023/04/27 12:06:30;;;;;;;;;;;;;;;20.80;44.74;101555.41;5009515;28;4048;-66
2023/04/27 12:08:59;;;;;;;;;;;;;;;20.81;44.72;101556.88;5004932;28;4083;-67
2023/04/27 12:11:26;;;;;;;;;;;;;;;20.81;45.13;101559.75;5004261;28;4129;-67
2023/04/27 12:13:53;;;;;;;;;;;;;;;20.82;44.95;101558.41;5006692;28;4199;-67
2023/04/27 12:16:21;;;;;;;;;;;;;;;20.82;45.17;101558.41;5007333;28;4075;-66
2023/04/27 12:18:48;;;;;;;;;;;;;;;20.82;44.89;101561.28;5006426;28;3967;-67
2023/04/27 12:21:14;;;;;;;;;;;;;;;20.83;45.23;101570.66;5006272;28;4016;-66
2023/04/27 12:23:41;;;;;;;;;;;;;;;20.81;45.10;101565.53;5005463;28;4101;-66
2023/04/27 12:26:07;;;;;;;;;;;;;;;20.81;45.40;101574.16;5007739;28;4017;-67
2023/04/27 12:28:34;;;;;;;;;;;;;;;20.81;45.33;101574.16;5011743;28;4214;-66
2023/04/27 12:31:02;;;;;;;;;;;;;;;20.81;45.38;101568.41;5007265;28;4554;-67
2023/04/27 12:33:29;;;;;;;;;;;;;;;20.82;45.48;101572.03;5003228;28;4222;-67
2023/04/27 12:35:55;;;;;;;;;;;;;;;20.81;45.23;101568.41;5004429;28;3944;-67
2023/04/27 12:38:21;;;;;;;;;;;;;;;20.81;45.19;101568.41;5009778;28;4295;-67
2023/04/27 12:40:48;;;;;;;;;;;;;;;20.82;45.35;101569.91;5008992;28;4148;-66
2023/04/27 12:43:14;;;;;;;;;;;;;;;20.82;45.28;101560.50;5001729;28;4471;-67
2023/04/27 12:45:41;;;;;;;;;;;;;;;20.82;45.41;101569.91;5007353;28;4211;-67
2023/04/27 12:48:07;;;;;;;;;;;;;;;20.81;45.23;101568.41;5009289;28;4093;-66